Time;durP1;ratioP1;P1;durP2;ratioP2;P2;SDS_P1;SDS_P2;PMS_P1;PMS_P2;Temp;Humidity;BMP_temperature;BMP_pressure;BME280_temperature;BME280_humidity;BME280_pressure;Samples;Min_cycle;Max_cycle;Signal;HPM_P1;HPM_P2
2022/04/01 00:01:51;;;;;;;24.85;10.45;;;384.50;2329.60;;;;;;4993669;28;20081;-77
2022/04/01 00:04:17;;;;;;;21.08;10.38;;;384.50;2329.60;;;;;;5011772;28;20061;-78
2022/04/01 00:06:43;;;;;;;26.27;10.07;;;384.50;2329.60;;;;;;4995489;28;20080;-77
2022/04/01 00:09:08;;;;;;;23.02;10.77;;;384.40;2329.60;;;;;;4993456;28;20069;-78
2022/04/01 00:11:34;;;;;;;30.85;11.27;;;384.40;2329.60;;;;;;4996399;28;20038;-77
2022/04/01 00:14:00;;;;;;;24.10;11.63;;;384.30;2329.60;;;;;;5008469;28;20044;-77
2022/04/01 00:16:26;;;;;;;23.77;11.07;;;384.30;2329.60;;;;;;5011492;28;20038;-77
2022/04/01 00:18:51;;;;;;;26.92;11.35;;;384.30;2329.60;;;;;;4992816;28;20196;-77
2022/04/01 00:21:17;;;;;;;24.17;11.45;;;384.30;2329.60;;;;;;5009606;28;20037;-77
2022/04/01 00:23:43;;;;;;;19.85;11.55;;;384.30;2329.60;;;;;;5010785;28;20109;-78
2022/04/01 00:26:09;;;;;;;27.20;10.15;;;384.40;2329.60;;;;;;4993643;28;20176;-78
2022/04/01 00:28:34;;;;;;;24.08;10.18;;;384.30;2329.60;;;;;;4993318;28;20042;-78
2022/04/01 00:31:00;;;;;;;18.33;9.63;;;384.40;2329.60;;;;;;4993926;28;20041;-78
2022/04/01 00:33:27;;;;;;;20.67;11.25;;;384.40;2329.60;;;;;;5010823;28;20033;-77
2022/04/01 00:35:53;;;;;;;16.63;9.38;;;384.40;2329.60;;;;;;5010862;28;20049;-78
2022/04/01 00:38:19;;;;;;;23.10;10.38;;;384.50;2329.60;;;;;;4993880;28;20673;-78
2022/04/01 00:40:45;;;;;;;22.20;10.82;;;384.40;2329.60;;;;;;5010739;28;20030;-78
2022/04/01 00:43:11;;;;;;;29.52;10.23;;;384.50;2329.60;;;;;;4991020;28;20120;-78
2022/04/01 00:45:38;;;;;;;19.98;10.52;;;384.40;2329.60;;;;;;4995998;28;20541;-78
2022/04/01 00:48:04;;;;;;;22.80;11.70;;;384.40;2329.60;;;;;;5011249;28;20516;-78
2022/04/01 00:50:32;;;;;;;23.63;10.23;;;384.40;2329.60;;;;;;5010580;28;20502;-78
2022/04/01 00:52:58;;;;;;;20.60;9.70;;;384.30;2329.60;;;;;;5011289;28;20037;-78
2022/04/01 00:55:26;;;;;;;22.40;10.27;;;384.40;2329.60;;;;;;5010678;28;20029;-78
2022/04/01 00:57:52;;;;;;;19.52;10.80;;;384.40;2329.60;;;;;;5010454;28;20049;-78
2022/04/01 01:00:19;;;;;;;18.52;9.98;;;384.30;2329.60;;;;;;5004735;28;20046;-78
2022/04/01 01:02:45;;;;;;;24.25;10.50;;;384.30;2329.60;;;;;;4993193;28;20057;-77
2022/04/01 01:05:11;;;;;;;20.48;9.55;;;384.30;2329.60;;;;;;4993573;28;20495;-77
2022/04/01 01:07:42;;;;;;;24.40;11.30;;;384.30;2329.60;;;;;;4992719;28;20038;-77
2022/04/01 01:10:10;;;;;;;22.23;9.73;;;384.30;2329.60;;;;;;5012700;28;20053;-77
2022/04/01 01:12:37;;;;;;;21.98;10.32;;;384.30;2329.60;;;;;;5002141;28;20038;-77
2022/04/01 01:15:14;;;;;;;19.58;8.73;;;384.20;2329.60;;;;;;4994762;28;20076;-77
2022/04/01 01:17:43;;;;;;;19.27;8.63;;;384.20;2329.60;;;;;;4997742;28;20054;-77
2022/04/01 01:20:14;;;;;;;17.88;8.65;;;384.20;2329.60;;;;;;5014424;28;20044;-77
2022/04/01 01:22:41;;;;;;;16.55;8.90;;;384.20;2329.60;;;;;;5014776;28;20067;-78
2022/04/01 01:25:11;;;;;;;17.17;9.65;;;384.20;2329.60;;;;;;4999462;28;20034;-78
2022/04/01 01:27:37;;;;;;;21.40;11.77;;;384.20;2329.60;;;;;;4996951;28;20084;-77
2022/04/01 01:30:05;;;;;;;23.23;8.95;;;384.20;2329.60;;;;;;4996497;28;20041;-78
2022/04/01 01:32:33;;;;;;;16.42;8.07;;;384.20;2329.60;;;;;;5013443;28;20057;-77
2022/04/01 01:34:59;;;;;;;20.13;9.38;;;384.20;2329.60;;;;;;4997159;28;20062;-77
2022/04/01 01:37:25;;;;;;;16.95;9.73;;;384.20;2329.60;;;;;;5013919;28;20453;-77
2022/04/01 01:39:51;;;;;;;15.77;8.27;;;384.20;2329.60;;;;;;4999652;28;20030;-78
2022/04/01 01:42:17;;;;;;;21.42;8.98;;;384.20;2329.60;;;;;;4996125;28;20034;-77
2022/04/01 01:44:43;;;;;;;18.38;8.57;;;384.20;2329.60;;;;;;5014426;28;20033;-77
2022/04/01 01:47:09;;;;;;;13.93;8.18;;;384.20;2329.60;;;;;;5012356;28;20506;-77
2022/04/01 01:49:35;;;;;;;13.13;7.68;;;384.20;2329.60;;;;;;4996013;28;20045;-77
2022/04/01 01:54:52;;;;;;;14.43;7.82;;;384.20;2329.60;;;;;;5013961;28;20044;-78
2022/04/01 01:57:23;;;;;;;17.77;8.20;;;384.20;2329.60;;;;;;4996407;28;20461;-77
2022/04/01 01:59:50;;;;;;;14.40;8.57;;;384.20;2329.60;;;;;;4998467;28;20414;-77
2022/04/01 02:02:17;;;;;;;16.65;8.07;;;384.20;2329.60;;;;;;5013999;28;20078;-77
2022/04/01 02:04:43;;;;;;;18.88;8.25;;;384.30;2329.60;;;;;;4998602;28;20037;-77
2022/04/01 02:07:10;;;;;;;14.45;7.88;;;384.30;2329.60;;;;;;5013895;28;20069;-78
2022/04/01 02:09:37;;;;;;;12.35;7.68;;;384.70;2329.60;;;;;;4998860;28;20038;-77
2022/04/01 02:12:03;;;;;;;22.65;8.35;;;384.30;2329.60;;;;;;5006509;28;20122;-77
2022/04/01 02:14:30;;;;;;;15.65;8.05;;;384.30;2329.60;;;;;;4995729;28;20136;-77
2022/04/01 02:16:57;;;;;;;13.07;7.40;;;384.20;2329.60;;;;;;4997984;28;20414;-77
2022/04/01 02:19:23;;;;;;;16.08;7.82;;;384.20;2329.60;;;;;;4998605;28;20034;-77
2022/04/01 02:21:53;;;;;;;20.17;7.68;;;384.20;2329.60;;;;;;5011503;28;20038;-78
2022/04/01 02:24:23;;;;;;;15.25;7.28;;;384.20;2329.60;;;;;;5013142;28;20053;-76
2022/04/01 02:26:50;;;;;;;15.73;7.50;;;384.20;2329.60;;;;;;4997393;28;20042;-77
2022/04/01 02:29:20;;;;;;;12.52;7.80;;;384.20;2329.60;;;;;;4991689;28;20080;-77
2022/04/01 02:31:48;;;;;;;19.83;7.43;;;384.20;2329.60;;;;;;4992772;28;20044;-77
2022/04/01 02:34:14;;;;;;;20.95;8.52;;;384.20;2329.60;;;;;;5009924;28;20026;-76
2022/04/01 02:36:40;;;;;;;13.32;7.03;;;384.20;2329.60;;;;;;4994413;28;20457;-76
2022/04/01 02:39:06;;;;;;;13.48;7.00;;;384.20;2329.60;;;;;;5010538;28;20095;-77
2022/04/01 02:41:33;;;;;;;18.00;7.28;;;384.20;2329.60;;;;;;5011087;28;20033;-78
2022/04/01 02:44:08;;;;;;;17.02;7.70;;;384.20;2329.60;;;;;;4989817;28;20034;-77
2022/04/01 02:46:36;;;;;;;14.07;7.72;;;384.20;2329.60;;;;;;5010604;28;20671;-77
2022/04/01 02:49:06;;;;;;;9.95;6.72;;;384.20;2329.60;;;;;;4995550;28;20030;-78
2022/04/01 02:51:39;;;;;;;15.98;7.35;;;384.30;2329.60;;;;;;5000658;28;20037;-78
2022/04/01 02:54:06;;;;;;;11.60;7.20;;;384.10;2329.60;;;;;;4996385;28;20034;-78
2022/04/01 02:56:34;;;;;;;9.05;6.45;;;384.10;2329.60;;;;;;5012391;28;20053;-77
2022/04/01 02:59:01;;;;;;;17.10;7.88;;;384.10;2329.60;;;;;;5012922;28;20050;-78
2022/04/01 03:01:30;;;;;;;13.30;7.93;;;384.10;2329.60;;;;;;4996068;28;20069;-78
2022/04/01 03:03:56;;;;;;;16.73;7.57;;;384.10;2329.60;;;;;;4994779;28;20367;-77
2022/04/01 03:06:22;;;;;;;16.70;6.90;;;384.00;2329.60;;;;;;4995243;28;20096;-78
2022/04/01 03:08:49;;;;;;;18.08;8.35;;;384.00;2329.60;;;;;;4994887;28;20034;-78
2022/04/01 03:11:15;;;;;;;11.60;6.63;;;384.00;2329.60;;;;;;4997808;28;20030;-78
2022/04/01 03:13:41;;;;;;;20.40;8.73;;;384.00;2329.60;;;;;;5009204;28;20398;-77
2022/04/01 03:16:07;;;;;;;18.63;9.10;;;384.00;2329.60;;;;;;5012778;28;20026;-78
2022/04/01 03:18:32;;;;;;;15.93;8.35;;;384.00;2329.60;;;;;;4994526;28;20022;-77
2022/04/01 03:20:58;;;;;;;18.23;7.57;;;384.00;2329.60;;;;;;4995178;28;20065;-77
2022/04/01 03:23:24;;;;;;;17.90;9.60;;;384.10;2329.60;;;;;;5012119;28;20425;-77
2022/04/01 03:25:53;;;;;;;13.77;8.07;;;384.10;2329.60;;;;;;4994899;28;20046;-77
2022/04/01 03:28:18;;;;;;;17.20;7.75;;;384.10;2329.60;;;;;;4994075;28;20125;-77
2022/04/01 03:30:44;;;;;;;23.25;7.82;;;384.10;2329.60;;;;;;4994322;28;20529;-77
2022/04/01 03:33:10;;;;;;;17.05;7.97;;;384.10;2329.60;;;;;;4994647;28;20395;-76
2022/04/01 03:35:37;;;;;;;15.43;7.50;;;384.20;2329.60;;;;;;4994178;28;20042;-77
2022/04/01 03:38:05;;;;;;;15.32;7.72;;;384.20;2329.60;;;;;;4994720;28;20033;-77
2022/04/01 03:40:31;;;;;;;14.45;7.38;;;384.20;2329.60;;;;;;4994229;28;20164;-77
2022/04/01 03:42:57;;;;;;;15.95;6.55;;;384.30;2329.60;;;;;;5010946;28;20037;-79
2022/04/01 03:45:24;;;;;;;15.45;6.82;;;384.30;2329.60;;;;;;4993897;28;20033;-78
2022/04/01 03:48:06;;;;;;;20.95;7.72;;;384.30;2329.60;;;;;;4994450;28;20045;-78
2022/04/01 03:50:34;;;;;;;11.38;7.72;;;384.20;2329.60;;;;;;5012167;28;20034;-78
2022/04/01 03:53:04;;;;;;;12.63;7.28;;;384.20;2329.60;;;;;;5011460;28;20033;-77
2022/04/01 03:55:35;;;;;;;17.73;8.30;;;384.20;2329.60;;;;;;4994486;28;20040;-77
2022/04/01 03:58:07;;;;;;;17.63;7.68;;;384.10;2329.60;;;;;;5011456;28;20036;-77
2022/04/01 04:00:33;;;;;;;16.27;7.60;;;384.10;2329.60;;;;;;4994098;28;20124;-78
2022/04/01 04:03:06;;;;;;;14.95;8.00;;;384.10;2329.60;;;;;;5012041;28;20052;-78
2022/04/01 04:05:36;;;;;;;13.23;6.63;;;384.10;2329.60;;;;;;5011348;28;20040;-78
2022/04/01 04:08:04;;;;;;;12.95;6.95;;;384.00;2329.60;;;;;;5005152;28;20057;-77
2022/04/01 04:10:32;;;;;;;15.52;7.80;;;384.00;2329.60;;;;;;4993552;28;20040;-79
2022/04/01 04:12:58;;;;;;;18.35;9.82;;;384.00;2329.60;;;;;;4993896;28;20037;-77
2022/04/01 04:15:39;;;;;;;24.20;11.88;;;359.30;2329.60;;;;;;5011289;28;20368;-77
2022/04/01 04:18:09;;;;;;;18.27;9.95;;;359.30;2329.60;;;;;;5001518;28;20034;-77
2022/04/01 04:20:40;;;;;;;19.13;9.70;;;359.20;2329.60;;;;;;4993852;28;20108;-76
2022/04/01 04:23:16;;;;;;;16.27;7.82;;;359.20;2329.60;;;;;;5003086;28;20042;-76
2022/04/01 04:26:05;;;;;;;16.42;7.47;;;359.20;2329.60;;;;;;5008917;28;20795;-77
2022/04/01 04:28:37;;;;;;;13.18;7.97;;;359.20;2329.60;;;;;;4983089;28;20042;-77
2022/04/01 04:31:05;;;;;;;13.95;7.93;;;359.10;2329.60;;;;;;5002173;28;20049;-77
2022/04/01 04:33:31;;;;;;;15.35;7.68;;;359.10;2329.60;;;;;;4993778;28;20034;-78
2022/04/01 04:36:05;;;;;;;18.65;10.02;;;359.10;2329.60;;;;;;4993330;28;20886;-78
2022/04/01 04:38:39;;;;;;;14.23;7.68;;;359.10;2329.60;;;;;;4993183;28;20491;-77
2022/04/01 04:41:08;;;;;;;16.70;8.88;;;359.10;2329.60;;;;;;5011504;28;20074;-77
2022/04/01 04:43:46;;;;;;;16.90;9.07;;;359.00;2329.60;;;;;;5011006;28;20360;-77
2022/04/01 04:46:14;;;;;;;17.15;8.00;;;359.10;2329.60;;;;;;4993228;28;20064;-78
2022/04/01 04:48:42;;;;;;;16.85;8.60;;;359.10;2329.60;;;;;;5000253;28;20486;-76
2022/04/01 04:51:09;;;;;;;20.40;9.35;;;359.10;2329.60;;;;;;5017389;28;20034;-77
2022/04/01 04:53:35;;;;;;;15.82;8.43;;;359.10;2329.60;;;;;;5000019;28;20037;-77
2022/04/01 04:56:02;;;;;;;24.52;8.05;;;359.10;2329.60;;;;;;4999641;28;20030;-77
2022/04/01 04:58:39;;;;;;;13.30;8.20;;;359.10;2329.60;;;;;;5017710;28;20041;-78
2022/04/01 05:01:38;;;;;;;14.90;9.32;;;359.20;2329.60;;;;;;5015186;28;20049;-77
2022/04/01 05:04:25;;;;;;;15.40;7.25;;;359.20;2329.60;;;;;;4991863;28;20438;-78
2022/04/01 05:07:16;;;;;;;13.82;7.80;;;359.30;2329.60;;;;;;5016786;28;20034;-78
2022/04/01 05:10:16;;;;;;;15.13;7.05;;;359.30;2329.60;;;;;;5017479;28;20026;-78
2022/04/01 05:13:09;;;;;;;14.45;8.00;;;384.00;2329.60;;;;;;4999977;28;20689;-78
2022/04/01 05:15:37;;;;;;;18.42;6.03;;;384.10;2329.60;;;;;;5006468;28;20049;-78
2022/04/01 05:18:16;;;;;;;20.33;9.35;;;384.10;2329.60;;;;;;4998331;28;20045;-78
2022/04/01 05:20:52;;;;;;;18.13;7.55;;;384.10;2329.60;;;;;;5001541;28;20041;-78
2022/04/01 05:23:49;;;;;;;14.13;8.13;;;384.20;2329.60;;;;;;4999112;28;20044;-77
2022/04/01 05:26:20;;;;;;;14.63;7.97;;;384.20;2329.60;;;;;;5015957;28;20490;-78
2022/04/01 05:28:51;;;;;;;17.98;8.15;;;384.30;2329.60;;;;;;5013842;28;20120;-77
2022/04/01 05:31:35;;;;;;;20.58;7.85;;;384.30;2329.60;;;;;;4999609;28;20053;-78
2022/04/01 05:34:13;;;;;;;14.98;8.00;;;384.40;2329.60;;;;;;5017016;28;20022;-78
2022/04/01 05:36:40;;;;;;;12.63;8.68;;;384.50;2329.60;;;;;;4999304;28;20030;-78
2022/04/01 05:39:06;;;;;;;14.07;7.60;;;384.50;2329.60;;;;;;4999769;28;20030;-78
2022/04/01 05:41:33;;;;;;;23.23;8.32;;;384.50;2329.60;;;;;;4999385;28;20041;-77
2022/04/01 05:43:59;;;;;;;18.65;10.18;;;384.60;2329.60;;;;;;5000340;28;20368;-78
2022/04/01 05:46:25;;;;;;;15.63;8.68;;;384.70;2329.60;;;;;;4999442;28;20517;-77
2022/04/01 05:48:53;;;;;;;20.95;9.60;;;384.80;2329.60;;;;;;4999966;28;20038;-78
2022/04/01 05:51:19;;;;;;;17.55;8.20;;;384.60;2329.60;;;;;;4999433;28;20032;-78
2022/04/01 05:53:47;;;;;;;20.45;8.70;;;384.90;2329.60;;;;;;5000114;28;20520;-78
2022/04/01 05:56:14;;;;;;;17.70;8.52;;;409.60;2355.20;;;;;;4998192;28;20117;-78
2022/04/01 05:58:42;;;;;;;20.77;8.25;;;409.70;2355.20;;;;;;5014029;28;20046;-78
2022/04/01 06:01:41;;;;;;;16.80;9.10;;;409.70;2355.20;;;;;;4996381;28;20092;-78
2022/04/01 06:04:24;;;;;;;12.48;7.00;;;409.90;2355.20;;;;;;4933722;29;20385;-77
2022/04/01 06:07:00;;;;;;;14.85;7.30;;;409.90;2355.20;;;;;;4934152;29;20040;-78
2022/04/01 06:09:35;;;;;;;17.13;8.20;;;410.10;2355.20;;;;;;4916942;29;20552;-78
2022/04/01 06:12:24;;;;;;;16.23;6.30;;;410.20;2355.20;;;;;;4934340;29;20620;-78
2022/04/01 06:15:02;;;;;;;15.82;7.38;;;410.20;2355.20;;;;;;4934003;29;20032;-78
2022/04/01 06:17:58;;;;;;;12.85;5.78;;;410.20;2355.20;;;;;;4928545;29;20875;-78
2022/04/01 06:20:26;;;;;;;18.13;7.22;;;410.30;2355.20;;;;;;4933982;29;20066;-77
2022/04/01 06:23:18;;;;;;;20.70;6.97;;;410.30;2355.20;;;;;;4918110;29;20409;-78
2022/04/01 06:25:52;;;;;;;13.00;7.28;;;410.40;2355.20;;;;;;4933845;29;20103;-78
2022/04/01 06:28:27;;;;;;;13.52;8.15;;;410.50;2355.20;;;;;;4930753;29;20040;-78
2022/04/01 06:30:55;;;;;;;19.15;7.25;;;435.20;2355.20;;;;;;4929734;29;20046;-78
2022/04/01 06:33:37;;;;;;;18.60;7.07;;;435.40;2355.20;;;;;;4933762;29;20095;-77
2022/04/01 06:36:05;;;;;;;17.17;8.40;;;435.40;2355.20;;;;;;4931763;29;20036;-78
2022/04/01 06:38:41;;;;;;;18.13;7.13;;;435.50;2355.20;;;;;;4933535;29;20521;-77
2022/04/01 06:41:19;;;;;;;14.68;6.05;;;435.60;2355.20;;;;;;4976811;28;20060;-77
2022/04/01 06:43:45;;;;;;;13.88;6.65;;;435.70;2355.20;;;;;;5013570;28;20588;-77
2022/04/01 06:46:11;;;;;;;17.15;6.18;;;435.80;2355.20;;;;;;4995118;28;20087;-77
2022/04/01 06:48:38;;;;;;;20.35;7.57;;;435.80;2355.20;;;;;;4995785;28;20033;-78
2022/04/01 06:51:04;;;;;;;17.00;6.15;;;435.80;2355.20;;;;;;4991245;28;20037;-78
2022/04/01 06:53:30;;;;;;;15.48;7.05;;;435.90;2355.20;;;;;;5013143;28;20105;-78
2022/04/01 06:55:55;;;;;;;18.83;6.65;;;435.90;2355.20;;;;;;4995379;28;20129;-78
2022/04/01 06:58:26;;;;;;;16.63;7.53;;;436.10;2355.20;;;;;;4995434;28;20100;-78
2022/04/01 07:00:53;;;;;;;15.88;6.25;;;460.80;2380.80;;;;;;4994858;28;20093;-78
2022/04/01 07:03:18;;;;;;;12.85;7.15;;;460.80;2380.80;;;;;;4995396;28;20113;-77
2022/04/01 07:05:44;;;;;;;21.30;6.53;;;460.80;2380.80;;;;;;5013359;28;20042;-78
2022/04/01 07:08:11;;;;;;;20.90;7.85;;;460.90;2380.80;;;;;;4993626;28;20089;-78
2022/04/01 07:10:38;;;;;;;16.55;7.97;;;461.00;2380.80;;;;;;4992260;28;20057;-78
2022/04/01 07:13:05;;;;;;;21.35;7.90;;;461.00;2380.80;;;;;;4994741;28;20029;-78
2022/04/01 07:15:30;;;;;;;20.45;7.50;;;461.10;2380.80;;;;;;5012595;28;20112;-78
2022/04/01 07:17:56;;;;;;;23.50;7.65;;;461.30;2380.80;;;;;;5012371;28;20478;-78
2022/04/01 07:20:22;;;;;;;19.50;7.75;;;461.40;2380.80;;;;;;4995360;28;20372;-78
2022/04/01 07:22:51;;;;;;;18.50;8.23;;;461.70;2380.80;;;;;;4994875;28;20042;-78
2022/04/01 07:25:17;;;;;;;17.73;7.13;;;486.60;2380.80;;;;;;4994991;28;20033;-78
2022/04/01 07:27:43;;;;;;;22.00;8.77;;;486.80;2380.80;;;;;;5011005;28;20033;-78
2022/04/01 07:30:09;;;;;;;29.73;9.93;;;486.70;2380.80;;;;;;4994132;28;20398;-78
2022/04/01 07:32:36;;;;;;;15.75;7.80;;;486.60;2380.80;;;;;;5012420;28;20038;-78
2022/04/01 07:35:07;;;;;;;21.17;7.57;;;486.40;2380.80;;;;;;4994214;28;20030;-78
2022/04/01 07:37:33;;;;;;;26.10;9.73;;;461.70;2380.80;;;;;;4994799;28;20038;-78
2022/04/01 07:39:59;;;;;;;18.73;7.57;;;461.70;2380.80;;;;;;4993748;28;20044;-78
2022/04/01 07:42:26;;;;;;;22.95;8.75;;;461.40;2380.80;;;;;;5012102;28;20088;-78
2022/04/01 07:44:52;;;;;;;18.40;7.43;;;461.50;2380.80;;;;;;4993179;28;20521;-77
2022/04/01 07:47:19;;;;;;;28.88;9.10;;;461.40;2380.80;;;;;;5011905;28;20034;-78
2022/04/01 07:49:49;;;;;;;19.95;9.45;;;461.40;2380.80;;;;;;4992615;28;20026;-78
2022/04/01 07:52:16;;;;;;;23.15;8.23;;;461.40;2380.80;;;;;;5010257;28;20024;-78
2022/04/01 07:54:43;;;;;;;29.27;8.68;;;461.50;2380.80;;;;;;5010934;28;20096;-78
2022/04/01 07:57:13;;;;;;;19.83;8.60;;;486.40;2380.80;;;;;;4992739;28;20073;-78
2022/04/01 07:59:39;;;;;;;34.75;11.80;;;486.80;2380.80;;;;;;5010643;28;20054;-78
2022/04/01 08:02:06;;;;;;;21.98;8.38;;;487.10;2380.80;;;;;;4985741;28;20038;-78
2022/04/01 08:04:31;;;;;;;25.20;10.73;;;512.20;2380.80;;;;;;5007148;28;20034;-78
2022/04/01 08:06:58;;;;;;;27.20;10.40;;;512.50;2380.80;;;;;;4994147;28;20096;-78
2022/04/01 08:09:24;;;;;;;33.08;10.48;;;512.90;2380.80;;;;;;5011678;28;20144;-78
2022/04/01 08:11:51;;;;;;;28.17;10.20;;;538.10;2406.40;;;;;;4994411;28;20030;-79
2022/04/01 08:14:17;;;;;;;24.30;10.63;;;538.30;2406.40;;;;;;5011273;28;20037;-79
2022/04/01 08:16:44;;;;;;;24.00;10.40;;;538.00;2406.40;;;;;;4994021;28;20034;-78
2022/04/01 08:19:11;;;;;;;26.50;10.45;;;538.10;2406.40;;;;;;5010506;28;20491;-78
2022/04/01 08:21:37;;;;;;;30.27;11.07;;;537.80;2406.40;;;;;;4994399;28;20413;-78
2022/04/01 08:24:03;;;;;;;37.33;17.83;;;537.70;2406.40;;;;;;4993611;28;20443;-78
2022/04/01 08:26:29;;;;;;;25.30;9.45;;;537.90;2406.40;;;;;;4993677;28;20030;-79
2022/04/01 08:28:57;;;;;;;22.95;10.13;;;537.60;2406.40;;;;;;5011230;28;20437;-78
2022/04/01 08:31:24;;;;;;;23.55;10.40;;;537.80;2406.40;;;;;;4994412;28;20096;-79
2022/04/01 08:33:51;;;;;;;21.25;8.27;;;537.70;2406.40;;;;;;4993658;28;20499;-78
2022/04/01 08:36:17;;;;;;;19.60;8.98;;;512.80;2380.80;;;;;;5010656;28;20549;-79
2022/04/01 08:38:43;;;;;;;27.45;10.30;;;537.60;2406.40;;;;;;4994092;28;20517;-77
2022/04/01 08:41:09;;;;;;;23.45;8.48;;;512.80;2380.80;;;;;;4993041;28;20041;-78
2022/04/01 08:43:39;;;;;;;25.73;8.82;;;512.50;2380.80;;;;;;4994089;28;20453;-78
2022/04/01 08:46:07;;;;;;;22.02;8.43;;;537.60;2406.40;;;;;;4993247;28;20034;-78
2022/04/01 08:48:33;;;;;;;21.58;7.75;;;537.70;2406.40;;;;;;4993853;28;20037;-79
2022/04/01 08:51:00;;;;;;;22.92;8.75;;;538.30;2406.40;;;;;;4993000;28;20042;-78
2022/04/01 08:53:26;;;;;;;25.48;8.32;;;563.70;2432.00;;;;;;4993613;28;20042;-78
2022/04/01 08:55:56;;;;;;;19.73;9.18;;;564.10;2432.00;;;;;;5010903;28;20024;-78
2022/04/01 08:58:23;;;;;;;29.83;8.48;;;589.00;2432.00;;;;;;4993039;28;20390;-78
2022/04/01 09:00:51;;;;;;;23.25;7.93;;;589.10;2432.00;;;;;;5001803;28;20050;-78
2022/04/01 09:03:19;;;;;;;21.80;8.35;;;588.80;2432.00;;;;;;4993069;28;20038;-78
2022/04/01 09:05:56;;;;;;;22.75;10.40;;;563.70;2432.00;;;;;;4993467;28;20121;-78
2022/04/01 09:08:46;;;;;;;22.95;11.23;;;564.00;2432.00;;;;;;5009175;28;20038;-78
2022/04/01 09:11:17;;;;;;;19.85;9.00;;;564.10;2432.00;;;;;;5009909;28;20034;-78
2022/04/01 09:13:42;;;;;;;18.15;8.50;;;564.10;2432.00;;;;;;5009428;28;20022;-78
2022/04/01 09:16:10;;;;;;;20.02;7.60;;;563.70;2432.00;;;;;;5004996;28;20083;-78
2022/04/01 09:18:44;;;;;;;25.70;10.45;;;563.50;2432.00;;;;;;5010887;28;20029;-78
2022/04/01 09:21:12;;;;;;;27.45;9.43;;;563.80;2432.00;;;;;;5010862;28;20026;-78
2022/04/01 09:23:40;;;;;;;25.85;7.78;;;563.80;2432.00;;;;;;4992688;28;20183;-77
2022/04/01 09:26:06;;;;;;;24.30;8.75;;;564.10;2432.00;;;;;;5010826;28;20491;-78
2022/04/01 09:28:37;;;;;;;21.95;8.00;;;589.20;2432.00;;;;;;4992412;28;20116;-78
2022/04/01 09:31:10;;;;;;;23.25;8.93;;;589.00;2432.00;;;;;;4994353;28;20049;-78
2022/04/01 09:33:52;;;;;;;24.55;7.65;;;564.00;2432.00;;;;;;5009728;28;20029;-78
2022/04/01 09:36:22;;;;;;;25.23;8.20;;;564.00;2432.00;;;;;;4996086;28;20034;-78
2022/04/01 09:39:20;;;;;;;16.83;8.20;;;563.70;2432.00;;;;;;5013903;28;20030;-78
2022/04/01 09:41:58;;;;;;;23.88;8.48;;;563.20;2432.00;;;;;;4953790;28;20094;-77
2022/04/01 09:44:36;;;;;;;22.48;8.70;;;538.10;2406.40;;;;;;4952779;28;20031;-78
2022/04/01 09:47:05;;;;;;;20.55;7.78;;;512.80;2380.80;;;;;;4934996;29;20055;-75
2022/04/01 09:49:39;;;;;;;14.80;6.85;;;486.70;2380.80;;;;;;4932556;29;20072;-74
2022/04/01 09:52:13;;;;;;;14.63;6.82;;;461.10;2380.80;;;;;;4939226;29;20035;-75
2022/04/01 09:54:54;;;;;;;12.18;7.32;;;435.90;2355.20;;;;;;4941832;28;20039;-77
2022/04/01 09:57:22;;;;;;;12.95;6.00;;;435.60;2355.20;;;;;;4952864;28;20043;-77
2022/04/01 09:59:50;;;;;;;14.50;6.88;;;435.40;2355.20;;;;;;4946640;28;20053;-77
2022/04/01 10:02:16;;;;;;;14.73;7.90;;;435.20;2355.20;;;;;;4949844;28;20381;-77
2022/04/01 10:04:42;;;;;;;14.00;6.70;;;435.20;2355.20;;;;;;4976680;28;20170;-77
2022/04/01 10:07:08;;;;;;;18.90;11.40;;;410.30;2355.20;;;;;;4947848;28;20035;-77
2022/04/01 10:09:36;;;;;;;17.25;9.82;;;410.30;2355.20;;;;;;4962164;28;20471;-77
2022/04/01 10:12:07;;;;;;;14.55;7.78;;;410.20;2355.20;;;;;;4960002;28;20066;-77
2022/04/01 10:14:38;;;;;;;11.55;7.28;;;410.10;2355.20;;;;;;4973073;28;20043;-77
2022/04/01 10:17:04;;;;;;;13.75;6.68;;;410.10;2355.20;;;;;;4957687;28;20035;-76
2022/04/01 10:19:34;;;;;;;12.07;8.32;;;410.00;2355.20;;;;;;5017535;28;20395;-77
2022/04/01 10:22:01;;;;;;;15.13;7.40;;;410.10;2355.20;;;;;;5003584;28;20375;-79
2022/04/01 10:24:51;;;;;;;10.30;6.18;;;410.10;2355.20;;;;;;5011108;28;20108;-78
2022/04/01 10:27:34;;;;;;;11.75;6.28;;;410.10;2355.20;;;;;;5011147;28;20085;-77
2022/04/01 10:30:00;;;;;;;10.57;6.07;;;410.10;2355.20;;;;;;5009160;28;20030;-77
2022/04/01 10:32:28;;;;;;;11.13;6.43;;;410.10;2355.20;;;;;;5008792;28;20060;-78
2022/04/01 10:35:02;;;;;;;11.00;7.60;;;410.30;2355.20;;;;;;5012297;28;20026;-78
2022/04/01 10:37:31;;;;;;;12.75;7.75;;;410.40;2355.20;;;;;;5009591;28;20038;-77
2022/04/01 10:40:08;;;;;;;11.80;6.75;;;435.20;2355.20;;;;;;5009737;28;20025;-78
2022/04/01 10:42:36;;;;;;;12.30;7.10;;;435.40;2355.20;;;;;;5016916;28;20117;-78
2022/04/01 10:45:20;;;;;;;11.25;8.18;;;435.50;2355.20;;;;;;5011092;28;20363;-78
2022/04/01 10:53:38;;;;;;;11.43;6.97;;;461.00;2380.80;;;;;;5009116;28;20564;-77
2022/04/01 10:56:25;;;;;;;9.55;6.18;;;486.90;2380.80;;;;;;5013619;28;20026;-76
2022/04/01 10:59:06;;;;;;;11.18;7.13;;;538.10;2406.40;;;;;;5011613;28;20121;-78
2022/04/01 11:01:34;;;;;;;8.35;5.03;;;588.90;2432.00;;;;;;5011997;28;20573;-77
2022/04/01 11:04:27;;;;;;;10.43;6.40;;;589.70;2432.00;;;;;;5012758;28;20042;-79
2022/04/01 11:07:04;;;;;;;16.92;6.43;;;614.60;2432.00;;;;;;5031497;28;20032;-79
2022/04/01 11:09:33;;;;;;;8.02;5.82;;;589.60;2432.00;;;;;;5013085;28;20030;-78
2022/04/01 11:12:18;;;;;;;8.23;6.05;;;563.70;2432.00;;;;;;5012105;28;20038;-77
2022/04/01 11:15:12;;;;;;;8.40;6.13;;;538.50;2406.40;;;;;;5012753;28;20026;-80
2022/04/01 11:17:37;;;;;;;7.90;5.72;;;537.90;2406.40;;;;;;5008125;28;20038;-77
2022/04/01 11:20:07;;;;;;;7.15;5.60;;;538.10;2406.40;;;;;;4999104;28;20094;-77
2022/04/01 11:22:37;;;;;;;35.10;17.38;;;563.30;2432.00;;;;;;5010339;28;20104;-78
2022/04/01 11:25:08;;;;;;;13.73;5.90;;;563.60;2432.00;;;;;;5007526;28;20442;-77
2022/04/01 11:27:34;;;;;;;7.25;5.00;;;563.60;2432.00;;;;;;5010009;28;20065;-78
2022/04/01 11:30:13;;;;;;;9.88;5.22;;;588.80;2432.00;;;;;;5011194;28;20088;-78
2022/04/01 11:32:40;;;;;;;13.38;7.43;;;589.60;2432.00;;;;;;5020957;28;20088;-78
2022/04/01 11:35:08;;;;;;;12.25;6.82;;;615.10;2432.00;;;;;;5012748;28;20069;-78
2022/04/01 11:37:44;;;;;;;18.42;6.70;;;614.70;2099.20;;;;;;5010741;28;20112;-78
2022/04/01 11:40:14;;;;;;;17.25;7.60;;;589.30;2406.40;;;;;;5008622;28;20045;-77
2022/04/01 11:43:04;;;;;;;10.50;5.55;;;564.10;2432.00;;;;;;5008227;28;20034;-77
2022/04/01 11:45:38;;;;;;;7.32;4.53;;;538.40;2406.40;;;;;;5004239;28;20380;-77
2022/04/01 11:48:19;;;;;;;12.82;5.35;;;538.20;2406.40;;;;;;5010592;28;20108;-77
2022/04/01 11:50:48;;;;;;;11.65;4.40;;;538.10;2406.40;;;;;;5010232;28;20054;-76
2022/04/01 11:53:47;;;;;;;10.88;6.25;;;512.80;2380.80;;;;;;5011350;28;20101;-77
2022/04/01 11:56:14;;;;;;;7.40;3.85;;;538.10;2406.40;;;;;;4954966;28;20110;-77
2022/04/01 11:58:58;;;;;;;7.25;4.45;;;563.20;2355.20;;;;;;4954955;28;20408;-76
2022/04/01 12:01:28;;;;;;;4.45;2.15;;;563.80;2022.40;;;;;;4969805;28;20070;-76
2022/04/01 12:04:07;;;;;;;6.30;2.30;;;589.00;1817.60;;;;;;4971402;28;20035;-76
2022/04/01 12:09:19;;;;;;;9.30;3.53;;;563.60;1894.40;;;;;;4970026;28;20060;-76
2022/04/01 12:11:46;;;;;;;2.42;1.80;;;563.80;1843.20;;;;;;4967051;28;20551;-76
2022/04/01 12:14:13;;;;;;;11.55;3.28;;;563.50;1920.00;;;;;;4964235;28;20126;-76
2022/04/01 12:16:43;;;;;;;11.13;3.40;;;563.50;1894.40;;;;;;4966818;28;20030;-78
2022/04/01 12:19:22;;;;;;;8.20;2.83;;;588.80;1843.20;;;;;;4967939;28;20027;-76
2022/04/01 12:21:54;;;;;;;7.13;3.65;;;589.30;1868.80;;;;;;4950296;28;20054;-76
2022/04/01 12:24:21;;;;;;;7.53;2.78;;;589.00;1843.20;;;;;;4959006;28;20570;-77
2022/04/01 12:26:48;;;;;;;11.13;3.28;;;589.00;1894.40;;;;;;4970098;28;20043;-76
2022/04/01 12:29:24;;;;;;;5.55;2.30;;;588.90;1894.40;;;;;;4976090;28;20030;-76
2022/04/01 12:31:57;;;;;;;6.95;2.63;;;589.40;1817.60;;;;;;4961857;28;20119;-76
2022/04/01 12:34:24;;;;;;;3.90;1.67;;;589.40;1766.40;;;;;;5007805;28;20027;-76
2022/04/01 12:36:56;;;;;;;4.18;2.63;;;614.40;1715.20;;;;;;5009608;28;20049;-76